world map with MSR marked

MSR - Airport

This information may not be accurate or current and is not valid for navigation or flight planning. No warranty of fitness for any purpose is made or implied.

flag of Turkey

Donate via PayPal

Additional information is available on the NEW Great Circle Mapper

Location
City:  Mus, Mus, Turkey
ICAO / IATA:LTCK / MSR

Details
Type:Airport (Aerodrome, Airfield)
Use:Public/Civil, Military
Latitude:38°44'52"N (38.747769)
Longitude:41°39'40"E (41.661236)
Datum:WGS 1984
Elevation:4157 ft (1267 m)
Runways:1
Longest:11649 × 148 ft (3551 × 45 m)

Time
Timezone:UTC+3 (DST+5)
Local Time:

Weather
METAR:LTCK  041250Z 31003KT 290V350 3300 BR SCT006 BKN035 OVC070 M08/M09 Q1032 RMK RWY11 33004KT 300V010

Related Locations
Nearby:
Farthest:NEMO: 11416 mi / 18372 km
Pacific Ocean [Oceanic Pole of Inaccessibility (Point Nemo)]

Find:

   beyond  
but within

Other Information
Maps:
Sources:

  


 


Great Circle Mapper   Great Circle Mapper
Great Circle Mapper FAQ   Great Circle Mapper FAQ
  Karl's Home Page
KLSē   KLSē Home
   GC on Facebook
Airlines of the World   Airlines of the World
Donate via PayPal


Copyright © 2004-2019, Karl L. Swartz. All rights reserved.
All trademarks mentioned herein belong to their respective owners.

Please see credits for attribution and copyright information.

Karl Swartz <karl@kls2.com>
  Powered by FreeBSD
Valid HTML 4.01!
Labeled with ICRA
hCard Microformat
Geo Microformat